sensor_id;sensor_type;location;lat;lon;timestamp;P1;durP1;ratioP1;P2;durP2;ratioP2
5129;SDS011;2583;50.946;6.954;2023-02-28T00:00:36;2.03;;;1.70;;
5129;SDS011;2583;50.946;6.954;2023-02-28T00:03:04;3.50;;;1.80;;
5129;SDS011;2583;50.946;6.954;2023-02-28T00:05:31;4.10;;;2.00;;
5129;SDS011;2583;50.946;6.954;2023-02-28T00:07:58;3.13;;;2.30;;
5129;SDS011;2583;50.946;6.954;2023-02-28T00:10:26;3.60;;;1.80;;
5129;SDS011;2583;50.946;6.954;2023-02-28T00:12:55;4.10;;;1.80;;
5129;SDS011;2583;50.946;6.954;2023-02-28T00:15:25;2.47;;;2.10;;
5129;SDS011;2583;50.946;6.954;2023-02-28T00:17:52;2.03;;;1.93;;
5129;SDS011;2583;50.946;6.954;2023-02-28T00:20:19;2.20;;;2.00;;
5129;SDS011;2583;50.946;6.954;2023-02-28T00:22:47;3.20;;;2.00;;
5129;SDS011;2583;50.946;6.954;2023-02-28T00:25:16;2.47;;;1.70;;
5129;SDS011;2583;50.946;6.954;2023-02-28T00:27:45;3.20;;;1.90;;
5129;SDS011;2583;50.946;6.954;2023-02-28T00:30:14;2.27;;;2.07;;
5129;SDS011;2583;50.946;6.954;2023-02-28T00:32:42;2.20;;;1.90;;
5129;SDS011;2583;50.946;6.954;2023-02-28T00:35:11;2.87;;;1.90;;
5129;SDS011;2583;50.946;6.954;2023-02-28T00:37:38;2.83;;;1.60;;
5129;SDS011;2583;50.946;6.954;2023-02-28T00:40:06;2.03;;;1.50;;
5129;SDS011;2583;50.946;6.954;2023-02-28T00:42:34;2.47;;;1.60;;
5129;SDS011;2583;50.946;6.954;2023-02-28T00:45:01;4.50;;;1.73;;
5129;SDS011;2583;50.946;6.954;2023-02-28T00:47:32;2.00;;;1.30;;
5129;SDS011;2583;50.946;6.954;2023-02-28T00:49:59;2.03;;;1.63;;
5129;SDS011;2583;50.946;6.954;2023-02-28T00:52:26;2.30;;;1.80;;
5129;SDS011;2583;50.946;6.954;2023-02-28T00:54:53;2.63;;;1.70;;
5129;SDS011;2583;50.946;6.954;2023-02-28T00:57:20;2.10;;;1.80;;
5129;SDS011;2583;50.946;6.954;2023-02-28T00:59:47;2.07;;;1.63;;
5129;SDS011;2583;50.946;6.954;2023-02-28T01:02:14;2.03;;;1.47;;
5129;SDS011;2583;50.946;6.954;2023-02-28T01:04:41;2.20;;;1.57;;
5129;SDS011;2583;50.946;6.954;2023-02-28T01:07:08;2.10;;;1.60;;
5129;SDS011;2583;50.946;6.954;2023-02-28T01:09:34;3.10;;;1.80;;
5129;SDS011;2583;50.946;6.954;2023-02-28T01:12:01;1.90;;;1.60;;
5129;SDS011;2583;50.946;6.954;2023-02-28T01:14:28;2.30;;;1.60;;
5129;SDS011;2583;50.946;6.954;2023-02-28T01:16:55;1.77;;;1.63;;
5129;SDS011;2583;50.946;6.954;2023-02-28T01:19:21;3.27;;;1.80;;
5129;SDS011;2583;50.946;6.954;2023-02-28T01:21:48;2.27;;;2.00;;
5129;SDS011;2583;50.946;6.954;2023-02-28T01:24:15;3.10;;;2.13;;
5129;SDS011;2583;50.946;6.954;2023-02-28T01:26:42;2.40;;;1.83;;
5129;SDS011;2583;50.946;6.954;2023-02-28T01:29:08;3.70;;;1.60;;
5129;SDS011;2583;50.946;6.954;2023-02-28T01:31:35;2.70;;;1.83;;
5129;SDS011;2583;50.946;6.954;2023-02-28T01:34:02;3.80;;;2.10;;
5129;SDS011;2583;50.946;6.954;2023-02-28T01:36:29;3.13;;;1.70;;
5129;SDS011;2583;50.946;6.954;2023-02-28T01:38:56;3.40;;;1.90;;
5129;SDS011;2583;50.946;6.954;2023-02-28T01:41:24;3.43;;;1.73;;
5129;SDS011;2583;50.946;6.954;2023-02-28T01:43:55;2.13;;;1.50;;
5129;SDS011;2583;50.946;6.954;2023-02-28T01:46:29;4.60;;;1.70;;
5129;SDS011;2583;50.946;6.954;2023-02-28T01:49:05;2.43;;;1.83;;
5129;SDS011;2583;50.946;6.954;2023-02-28T01:51:38;7.33;;;2.30;;
5129;SDS011;2583;50.946;6.954;2023-02-28T01:54:12;2.23;;;1.70;;
5129;SDS011;2583;50.946;6.954;2023-02-28T01:56:46;3.43;;;1.60;;
5129;SDS011;2583;50.946;6.954;2023-02-28T01:59:22;2.43;;;1.57;;
5129;SDS011;2583;50.946;6.954;2023-02-28T02:02:12;2.10;;;1.33;;
5129;SDS011;2583;50.946;6.954;2023-02-28T02:04:41;3.20;;;1.90;;
5129;SDS011;2583;50.946;6.954;2023-02-28T02:07:19;3.13;;;1.70;;
5129;SDS011;2583;50.946;6.954;2023-02-28T02:09:47;2.13;;;1.30;;
5129;SDS011;2583;50.946;6.954;2023-02-28T02:12:18;1.77;;;1.40;;
5129;SDS011;2583;50.946;6.954;2023-02-28T02:17:44;1.97;;;1.73;;
5129;SDS011;2583;50.946;6.954;2023-02-28T02:25:40;2.77;;;1.40;;
5129;SDS011;2583;50.946;6.954;2023-02-28T02:36:53;2.77;;;1.67;;
5129;SDS011;2583;50.946;6.954;2023-02-28T02:39:46;5.60;;;1.90;;
5129;SDS011;2583;50.946;6.954;2023-02-28T02:42:27;1.53;;;1.33;;
5129;SDS011;2583;50.946;6.954;2023-02-28T02:45:10;2.47;;;1.77;;
5129;SDS011;2583;50.946;6.954;2023-02-28T02:47:42;2.33;;;1.90;;
5129;SDS011;2583;50.946;6.954;2023-02-28T02:50:12;2.27;;;1.40;;
5129;SDS011;2583;50.946;6.954;2023-02-28T02:52:47;2.50;;;1.60;;
5129;SDS011;2583;50.946;6.954;2023-02-28T02:55:18;3.33;;;1.47;;
5129;SDS011;2583;50.946;6.954;2023-02-28T02:57:49;2.20;;;1.20;;
5129;SDS011;2583;50.946;6.954;2023-02-28T03:00:18;1.70;;;1.40;;
5129;SDS011;2583;50.946;6.954;2023-02-28T03:02:49;1.93;;;1.40;;
5129;SDS011;2583;50.946;6.954;2023-02-28T03:05:23;2.83;;;2.00;;
5129;SDS011;2583;50.946;6.954;2023-02-28T03:07:53;1.60;;;1.33;;
5129;SDS011;2583;50.946;6.954;2023-02-28T03:10:34;2.03;;;1.60;;
5129;SDS011;2583;50.946;6.954;2023-02-28T03:13:11;3.10;;;1.37;;
5129;SDS011;2583;50.946;6.954;2023-02-28T03:21:25;2.87;;;1.30;;
5129;SDS011;2583;50.946;6.954;2023-02-28T03:24:06;3.77;;;1.30;;
5129;SDS011;2583;50.946;6.954;2023-02-28T03:26:42;2.03;;;1.50;;
5129;SDS011;2583;50.946;6.954;2023-02-28T03:29:22;1.57;;;1.47;;
5129;SDS011;2583;50.946;6.954;2023-02-28T03:34:33;3.23;;;1.77;;
5129;SDS011;2583;50.946;6.954;2023-02-28T03:37:08;2.63;;;1.70;;
5129;SDS011;2583;50.946;6.954;2023-02-28T03:39:41;2.00;;;1.37;;
5129;SDS011;2583;50.946;6.954;2023-02-28T03:42:13;1.77;;;1.37;;
5129;SDS011;2583;50.946;6.954;2023-02-28T03:45:05;2.60;;;1.50;;
5129;SDS011;2583;50.946;6.954;2023-02-28T03:50:13;1.93;;;1.00;;
5129;SDS011;2583;50.946;6.954;2023-02-28T03:52:52;1.80;;;1.40;;
5129;SDS011;2583;50.946;6.954;2023-02-28T03:55:32;1.40;;;1.20;;
5129;SDS011;2583;50.946;6.954;2023-02-28T03:58:05;2.17;;;1.63;;
5129;SDS011;2583;50.946;6.954;2023-02-28T04:00:47;2.43;;;1.50;;
5129;SDS011;2583;50.946;6.954;2023-02-28T04:03:17;2.47;;;1.60;;
5129;SDS011;2583;50.946;6.954;2023-02-28T04:05:51;4.10;;;2.00;;
5129;SDS011;2583;50.946;6.954;2023-02-28T04:08:20;1.37;;;1.10;;
5129;SDS011;2583;50.946;6.954;2023-02-28T04:10:50;2.57;;;1.73;;
5129;SDS011;2583;50.946;6.954;2023-02-28T04:13:30;2.20;;;2.00;;
5129;SDS011;2583;50.946;6.954;2023-02-28T04:15:57;3.50;;;1.97;;
5129;SDS011;2583;50.946;6.954;2023-02-28T04:18:24;3.67;;;2.00;;
5129;SDS011;2583;50.946;6.954;2023-02-28T04:20:50;2.57;;;2.00;;
5129;SDS011;2583;50.946;6.954;2023-02-28T04:23:17;2.23;;;1.50;;
5129;SDS011;2583;50.946;6.954;2023-02-28T04:25:44;2.73;;;2.30;;
5129;SDS011;2583;50.946;6.954;2023-02-28T04:28:11;2.43;;;1.80;;
5129;SDS011;2583;50.946;6.954;2023-02-28T04:30:37;3.27;;;1.87;;
5129;SDS011;2583;50.946;6.954;2023-02-28T04:33:05;2.60;;;2.03;;
5129;SDS011;2583;50.946;6.954;2023-02-28T04:35:32;2.50;;;2.00;;
5129;SDS011;2583;50.946;6.954;2023-02-28T04:37:59;4.57;;;1.90;;
5129;SDS011;2583;50.946;6.954;2023-02-28T04:40:25;2.03;;;1.83;;
5129;SDS011;2583;50.946;6.954;2023-02-28T04:42:52;2.77;;;2.10;;
5129;SDS011;2583;50.946;6.954;2023-02-28T04:45:19;3.87;;;2.10;;
5129;SDS011;2583;50.946;6.954;2023-02-28T04:47:46;2.53;;;2.00;;
5129;SDS011;2583;50.946;6.954;2023-02-28T04:50:12;2.30;;;2.10;;
5129;SDS011;2583;50.946;6.954;2023-02-28T04:52:39;3.87;;;2.37;;
5129;SDS011;2583;50.946;6.954;2023-02-28T04:55:06;2.80;;;2.60;;
5129;SDS011;2583;50.946;6.954;2023-02-28T04:57:33;3.17;;;2.20;;
5129;SDS011;2583;50.946;6.954;2023-02-28T05:00:00;2.03;;;1.83;;
5129;SDS011;2583;50.946;6.954;2023-02-28T05:02:26;2.63;;;2.30;;
5129;SDS011;2583;50.946;6.954;2023-02-28T05:04:53;3.33;;;1.90;;
5129;SDS011;2583;50.946;6.954;2023-02-28T05:07:20;1.93;;;1.70;;
5129;SDS011;2583;50.946;6.954;2023-02-28T05:09:47;7.80;;;1.90;;
5129;SDS011;2583;50.946;6.954;2023-02-28T05:12:13;2.00;;;1.73;;
5129;SDS011;2583;50.946;6.954;2023-02-28T05:14:40;3.33;;;2.00;;
5129;SDS011;2583;50.946;6.954;2023-02-28T05:17:07;3.40;;;2.40;;
5129;SDS011;2583;50.946;6.954;2023-02-28T05:19:35;2.53;;;2.10;;
5129;SDS011;2583;50.946;6.954;2023-02-28T05:22:01;2.33;;;2.00;;
5129;SDS011;2583;50.946;6.954;2023-02-28T05:24:28;3.13;;;2.20;;
5129;SDS011;2583;50.946;6.954;2023-02-28T05:26:55;7.13;;;2.43;;
5129;SDS011;2583;50.946;6.954;2023-02-28T05:29:22;2.77;;;1.93;;
5129;SDS011;2583;50.946;6.954;2023-02-28T05:31:49;1.80;;;1.70;;
5129;SDS011;2583;50.946;6.954;2023-02-28T05:34:16;2.20;;;2.00;;
5129;SDS011;2583;50.946;6.954;2023-02-28T05:36:43;6.20;;;2.00;;
5129;SDS011;2583;50.946;6.954;2023-02-28T05:39:10;1.80;;;1.70;;
5129;SDS011;2583;50.946;6.954;2023-02-28T05:41:42;2.73;;;2.00;;
5129;SDS011;2583;50.946;6.954;2023-02-28T05:44:10;5.37;;;1.73;;
5129;SDS011;2583;50.946;6.954;2023-02-28T05:46:37;2.20;;;2.00;;
5129;SDS011;2583;50.946;6.954;2023-02-28T05:49:04;3.47;;;2.20;;
5129;SDS011;2583;50.946;6.954;2023-02-28T05:51:31;2.20;;;1.53;;
5129;SDS011;2583;50.946;6.954;2023-02-28T05:53:58;2.23;;;1.57;;
5129;SDS011;2583;50.946;6.954;2023-02-28T05:56:27;2.50;;;1.73;;
5129;SDS011;2583;50.946;6.954;2023-02-28T05:58:54;1.63;;;1.53;;
5129;SDS011;2583;50.946;6.954;2023-02-28T06:03:48;2.30;;;2.00;;
5129;SDS011;2583;50.946;6.954;2023-02-28T06:06:15;2.50;;;2.23;;
5129;SDS011;2583;50.946;6.954;2023-02-28T06:08:42;1.70;;;1.60;;
5129;SDS011;2583;50.946;6.954;2023-02-28T06:11:10;1.90;;;1.70;;
5129;SDS011;2583;50.946;6.954;2023-02-28T06:13:37;2.07;;;1.73;;
5129;SDS011;2583;50.946;6.954;2023-02-28T06:16:04;2.00;;;1.80;;
5129;SDS011;2583;50.946;6.954;2023-02-28T06:18:31;1.70;;;1.60;;
5129;SDS011;2583;50.946;6.954;2023-02-28T06:20:58;2.40;;;2.20;;
5129;SDS011;2583;50.946;6.954;2023-02-28T06:23:25;1.70;;;1.40;;
5129;SDS011;2583;50.946;6.954;2023-02-28T06:25:52;1.67;;;1.40;;
5129;SDS011;2583;50.946;6.954;2023-02-28T06:28:19;2.40;;;1.53;;
5129;SDS011;2583;50.946;6.954;2023-02-28T06:30:46;2.10;;;1.60;;
5129;SDS011;2583;50.946;6.954;2023-02-28T06:33:13;2.73;;;1.87;;
5129;SDS011;2583;50.946;6.954;2023-02-28T06:35:39;2.40;;;2.20;;
5129;SDS011;2583;50.946;6.954;2023-02-28T06:38:09;2.80;;;1.90;;
5129;SDS011;2583;50.946;6.954;2023-02-28T06:40:36;1.50;;;1.40;;
5129;SDS011;2583;50.946;6.954;2023-02-28T06:43:03;1.90;;;1.70;;
5129;SDS011;2583;50.946;6.954;2023-02-28T06:45:30;1.77;;;1.67;;
5129;SDS011;2583;50.946;6.954;2023-02-28T06:47:57;3.50;;;2.27;;
5129;SDS011;2583;50.946;6.954;2023-02-28T06:50:24;2.20;;;1.80;;
5129;SDS011;2583;50.946;6.954;2023-02-28T06:52:51;1.83;;;1.70;;
5129;SDS011;2583;50.946;6.954;2023-02-28T06:55:20;2.53;;;1.90;;
5129;SDS011;2583;50.946;6.954;2023-02-28T06:57:46;3.47;;;2.13;;
5129;SDS011;2583;50.946;6.954;2023-02-28T07:00:13;2.83;;;2.10;;
5129;SDS011;2583;50.946;6.954;2023-02-28T07:02:41;1.50;;;1.40;;
5129;SDS011;2583;50.946;6.954;2023-02-28T07:05:08;2.17;;;1.53;;
5129;SDS011;2583;50.946;6.954;2023-02-28T07:07:34;2.40;;;2.03;;
5129;SDS011;2583;50.946;6.954;2023-02-28T07:10:04;2.40;;;1.93;;
5129;SDS011;2583;50.946;6.954;2023-02-28T07:12:32;2.90;;;2.03;;
5129;SDS011;2583;50.946;6.954;2023-02-28T07:14:58;2.80;;;1.47;;
5129;SDS011;2583;50.946;6.954;2023-02-28T07:17:25;8.07;;;2.20;;
5129;SDS011;2583;50.946;6.954;2023-02-28T07:19:52;3.83;;;1.83;;
5129;SDS011;2583;50.946;6.954;2023-02-28T07:22:19;3.67;;;1.93;;
5129;SDS011;2583;50.946;6.954;2023-02-28T07:24:46;2.43;;;2.00;;
5129;SDS011;2583;50.946;6.954;2023-02-28T07:27:13;3.47;;;2.00;;
5129;SDS011;2583;50.946;6.954;2023-02-28T07:29:49;2.70;;;1.90;;
5129;SDS011;2583;50.946;6.954;2023-02-28T07:32:16;4.80;;;2.03;;
5129;SDS011;2583;50.946;6.954;2023-02-28T07:34:43;2.00;;;1.80;;
5129;SDS011;2583;50.946;6.954;2023-02-28T07:37:10;2.30;;;1.77;;
5129;SDS011;2583;50.946;6.954;2023-02-28T07:39:37;2.27;;;2.07;;
5129;SDS011;2583;50.946;6.954;2023-02-28T07:42:04;3.50;;;1.50;;
5129;SDS011;2583;50.946;6.954;2023-02-28T07:44:32;3.10;;;1.80;;
5129;SDS011;2583;50.946;6.954;2023-02-28T07:46:59;2.20;;;1.83;;
5129;SDS011;2583;50.946;6.954;2023-02-28T07:49:26;2.00;;;1.80;;
5129;SDS011;2583;50.946;6.954;2023-02-28T07:51:52;4.13;;;2.13;;
5129;SDS011;2583;50.946;6.954;2023-02-28T07:54:19;4.43;;;2.40;;
5129;SDS011;2583;50.946;6.954;2023-02-28T07:56:46;2.77;;;1.60;;
5129;SDS011;2583;50.946;6.954;2023-02-28T07:59:12;5.10;;;2.00;;
5129;SDS011;2583;50.946;6.954;2023-02-28T08:01:39;3.70;;;2.17;;
5129;SDS011;2583;50.946;6.954;2023-02-28T08:04:06;2.60;;;1.70;;
5129;SDS011;2583;50.946;6.954;2023-02-28T08:06:33;2.20;;;1.70;;
5129;SDS011;2583;50.946;6.954;2023-02-28T08:08:59;1.60;;;1.50;;
5129;SDS011;2583;50.946;6.954;2023-02-28T08:11:26;2.03;;;1.30;;
5129;SDS011;2583;50.946;6.954;2023-02-28T08:13:54;2.40;;;1.60;;
5129;SDS011;2583;50.946;6.954;2023-02-28T08:16:20;1.83;;;1.50;;
5129;SDS011;2583;50.946;6.954;2023-02-28T08:18:49;18.23;;;1.70;;
5129;SDS011;2583;50.946;6.954;2023-02-28T08:21:16;1.90;;;1.60;;
5129;SDS011;2583;50.946;6.954;2023-02-28T08:23:43;2.93;;;1.80;;
5129;SDS011;2583;50.946;6.954;2023-02-28T08:26:14;2.00;;;1.67;;
5129;SDS011;2583;50.946;6.954;2023-02-28T08:28:42;1.93;;;1.30;;
5129;SDS011;2583;50.946;6.954;2023-02-28T08:31:09;2.27;;;1.67;;
5129;SDS011;2583;50.946;6.954;2023-02-28T08:33:38;1.57;;;1.30;;
5129;SDS011;2583;50.946;6.954;2023-02-28T08:36:05;3.80;;;1.23;;
5129;SDS011;2583;50.946;6.954;2023-02-28T08:38:33;2.43;;;2.30;;
5129;SDS011;2583;50.946;6.954;2023-02-28T08:41:02;2.33;;;1.40;;
5129;SDS011;2583;50.946;6.954;2023-02-28T08:43:33;2.30;;;1.40;;
5129;SDS011;2583;50.946;6.954;2023-02-28T08:46:01;1.80;;;0.83;;
5129;SDS011;2583;50.946;6.954;2023-02-28T08:48:28;1.30;;;0.93;;
5129;SDS011;2583;50.946;6.954;2023-02-28T08:53:33;2.50;;;0.90;;
5129;SDS011;2583;50.946;6.954;2023-02-28T08:56:02;1.63;;;1.00;;
5129;SDS011;2583;50.946;6.954;2023-02-28T08:58:31;1.80;;;1.20;;
5129;SDS011;2583;50.946;6.954;2023-02-28T09:00:58;2.67;;;1.50;;
5129;SDS011;2583;50.946;6.954;2023-02-28T09:03:25;1.53;;;1.00;;
5129;SDS011;2583;50.946;6.954;2023-02-28T09:05:57;1.43;;;0.93;;
5129;SDS011;2583;50.946;6.954;2023-02-28T09:08:25;1.60;;;0.90;;
5129;SDS011;2583;50.946;6.954;2023-02-28T09:10:53;1.50;;;1.10;;
5129;SDS011;2583;50.946;6.954;2023-02-28T09:13:22;1.50;;;0.90;;
5129;SDS011;2583;50.946;6.954;2023-02-28T09:15:50;1.13;;;0.80;;
5129;SDS011;2583;50.946;6.954;2023-02-28T09:18:17;1.30;;;1.10;;
5129;SDS011;2583;50.946;6.954;2023-02-28T09:20:44;1.50;;;1.00;;
5129;SDS011;2583;50.946;6.954;2023-02-28T09:23:11;1.87;;;1.03;;
5129;SDS011;2583;50.946;6.954;2023-02-28T09:25:45;1.30;;;0.97;;
5129;SDS011;2583;50.946;6.954;2023-02-28T09:28:16;1.50;;;1.00;;
5129;SDS011;2583;50.946;6.954;2023-02-28T09:30:45;1.67;;;0.80;;
5129;SDS011;2583;50.946;6.954;2023-02-28T09:33:13;1.70;;;1.27;;
5129;SDS011;2583;50.946;6.954;2023-02-28T09:35:41;4.03;;;1.10;;
5129;SDS011;2583;50.946;6.954;2023-02-28T09:38:09;5.97;;;1.03;;
5129;SDS011;2583;50.946;6.954;2023-02-28T09:40:47;1.03;;;0.70;;
5129;SDS011;2583;50.946;6.954;2023-02-28T09:43:16;1.97;;;1.00;;
5129;SDS011;2583;50.946;6.954;2023-02-28T09:48:39;4.30;;;1.50;;
5129;SDS011;2583;50.946;6.954;2023-02-28T09:51:15;1.83;;;0.97;;
5129;SDS011;2583;50.946;6.954;2023-02-28T09:53:49;2.03;;;1.23;;
5129;SDS011;2583;50.946;6.954;2023-02-28T09:56:39;2.00;;;1.00;;
5129;SDS011;2583;50.946;6.954;2023-02-28T10:05:00;1.93;;;1.30;;
5129;SDS011;2583;50.946;6.954;2023-02-28T10:07:55;2.90;;;1.10;;
5129;SDS011;2583;50.946;6.954;2023-02-28T10:10:44;1.60;;;1.10;;
5129;SDS011;2583;50.946;6.954;2023-02-28T10:13:27;1.30;;;0.87;;
5129;SDS011;2583;50.946;6.954;2023-02-28T10:16:00;1.83;;;0.83;;
5129;SDS011;2583;50.946;6.954;2023-02-28T10:18:38;2.33;;;1.17;;
5129;SDS011;2583;50.946;6.954;2023-02-28T10:21:38;2.10;;;1.07;;
5129;SDS011;2583;50.946;6.954;2023-02-28T10:24:19;1.37;;;1.10;;
5129;SDS011;2583;50.946;6.954;2023-02-28T10:26:52;1.63;;;1.00;;
5129;SDS011;2583;50.946;6.954;2023-02-28T10:29:26;2.87;;;1.33;;
5129;SDS011;2583;50.946;6.954;2023-02-28T10:31:55;1.20;;;1.10;;
5129;SDS011;2583;50.946;6.954;2023-02-28T10:34:23;1.60;;;1.17;;
5129;SDS011;2583;50.946;6.954;2023-02-28T10:36:51;2.60;;;1.23;;
5129;SDS011;2583;50.946;6.954;2023-02-28T10:39:34;3.63;;;1.00;;
5129;SDS011;2583;50.946;6.954;2023-02-28T10:42:24;1.53;;;1.00;;
5129;SDS011;2583;50.946;6.954;2023-02-28T10:45:09;1.83;;;1.47;;
5129;SDS011;2583;50.946;6.954;2023-02-28T10:47:39;1.57;;;1.20;;
5129;SDS011;2583;50.946;6.954;2023-02-28T10:50:36;1.20;;;1.10;;
5129;SDS011;2583;50.946;6.954;2023-02-28T11:03:57;2.10;;;1.33;;
5129;SDS011;2583;50.946;6.954;2023-02-28T11:06:31;1.43;;;1.27;;
5129;SDS011;2583;50.946;6.954;2023-02-28T11:09:01;2.13;;;1.37;;
5129;SDS011;2583;50.946;6.954;2023-02-28T11:11:41;2.00;;;1.30;;
5129;SDS011;2583;50.946;6.954;2023-02-28T11:14:21;3.20;;;1.63;;
5129;SDS011;2583;50.946;6.954;2023-02-28T11:16:50;1.97;;;1.40;;
5129;SDS011;2583;50.946;6.954;2023-02-28T11:19:28;1.60;;;1.20;;
5129;SDS011;2583;50.946;6.954;2023-02-28T11:22:04;1.43;;;1.20;;
5129;SDS011;2583;50.946;6.954;2023-02-28T11:24:35;1.70;;;1.30;;
5129;SDS011;2583;50.946;6.954;2023-02-28T11:27:11;1.30;;;1.20;;
5129;SDS011;2583;50.946;6.954;2023-02-28T11:30:22;3.53;;;2.60;;
5129;SDS011;2583;50.946;6.954;2023-02-28T11:32:57;2.50;;;1.60;;
5129;SDS011;2583;50.946;6.954;2023-02-28T11:35:26;1.77;;;1.40;;
5129;SDS011;2583;50.946;6.954;2023-02-28T11:37:56;2.17;;;1.97;;
5129;SDS011;2583;50.946;6.954;2023-02-28T11:40:39;2.07;;;1.77;;
5129;SDS011;2583;50.946;6.954;2023-02-28T11:51:54;1.90;;;1.40;;
5129;SDS011;2583;50.946;6.954;2023-02-28T11:55:00;1.60;;;1.50;;
5129;SDS011;2583;50.946;6.954;2023-02-28T12:06:33;2.00;;;1.80;;
5129;SDS011;2583;50.946;6.954;2023-02-28T12:26:38;1.50;;;1.37;;
5129;SDS011;2583;50.946;6.954;2023-02-28T12:29:30;3.50;;;2.10;;
5129;SDS011;2583;50.946;6.954;2023-02-28T12:32:00;1.90;;;1.50;;
5129;SDS011;2583;50.946;6.954;2023-02-28T12:34:33;2.33;;;1.47;;
5129;SDS011;2583;50.946;6.954;2023-02-28T12:37:06;2.20;;;1.43;;
5129;SDS011;2583;50.946;6.954;2023-02-28T12:39:41;1.90;;;1.70;;
5129;SDS011;2583;50.946;6.954;2023-02-28T12:42:22;1.80;;;1.60;;
5129;SDS011;2583;50.946;6.954;2023-02-28T12:45:02;2.03;;;1.83;;
5129;SDS011;2583;50.946;6.954;2023-02-28T12:47:36;5.60;;;1.97;;
5129;SDS011;2583;50.946;6.954;2023-02-28T12:50:06;3.37;;;2.20;;
5129;SDS011;2583;50.946;6.954;2023-02-28T12:57:55;2.20;;;2.00;;
5129;SDS011;2583;50.946;6.954;2023-02-28T13:00:33;2.13;;;1.90;;
5129;SDS011;2583;50.946;6.954;2023-02-28T13:09:14;2.60;;;2.10;;
5129;SDS011;2583;50.946;6.954;2023-02-28T13:11:51;3.10;;;2.83;;
5129;SDS011;2583;50.946;6.954;2023-02-28T13:14:24;5.30;;;4.80;;
5129;SDS011;2583;50.946;6.954;2023-02-28T13:19:36;3.30;;;2.20;;
5129;SDS011;2583;50.946;6.954;2023-02-28T13:22:37;1.80;;;1.60;;
5129;SDS011;2583;50.946;6.954;2023-02-28T13:28:06;2.00;;;1.47;;
5129;SDS011;2583;50.946;6.954;2023-02-28T13:38:41;2.27;;;2.07;;
5129;SDS011;2583;50.946;6.954;2023-02-28T13:44:04;2.00;;;1.80;;
5129;SDS011;2583;50.946;6.954;2023-02-28T13:52:11;3.30;;;2.47;;
5129;SDS011;2583;50.946;6.954;2023-02-28T13:57:39;2.43;;;1.60;;
5129;SDS011;2583;50.946;6.954;2023-02-28T14:03:06;3.03;;;1.90;;
5129;SDS011;2583;50.946;6.954;2023-02-28T14:11:39;2.63;;;2.43;;
5129;SDS011;2583;50.946;6.954;2023-02-28T14:14:09;2.57;;;2.37;;
5129;SDS011;2583;50.946;6.954;2023-02-28T14:16:56;2.07;;;1.87;;
5129;SDS011;2583;50.946;6.954;2023-02-28T14:19:25;2.10;;;1.90;;
5129;SDS011;2583;50.946;6.954;2023-02-28T14:24:49;1.83;;;1.70;;
5129;SDS011;2583;50.946;6.954;2023-02-28T14:27:43;2.60;;;2.40;;
5129;SDS011;2583;50.946;6.954;2023-02-28T14:30:40;2.80;;;1.77;;
5129;SDS011;2583;50.946;6.954;2023-02-28T14:33:35;1.93;;;1.83;;
5129;SDS011;2583;50.946;6.954;2023-02-28T14:36:36;2.70;;;2.50;;
5129;SDS011;2583;50.946;6.954;2023-02-28T14:39:16;3.07;;;2.77;;
5129;SDS011;2583;50.946;6.954;2023-02-28T14:41:46;3.30;;;2.40;;
5129;SDS011;2583;50.946;6.954;2023-02-28T14:44:15;2.33;;;2.13;;
5129;SDS011;2583;50.946;6.954;2023-02-28T14:46:43;7.43;;;2.50;;
5129;SDS011;2583;50.946;6.954;2023-02-28T14:49:21;2.53;;;2.33;;
5129;SDS011;2583;50.946;6.954;2023-02-28T14:54:54;4.40;;;1.90;;
5129;SDS011;2583;50.946;6.954;2023-02-28T14:57:27;4.03;;;2.40;;
5129;SDS011;2583;50.946;6.954;2023-02-28T15:02:33;2.50;;;2.30;;
5129;SDS011;2583;50.946;6.954;2023-02-28T15:05:23;2.67;;;2.23;;
5129;SDS011;2583;50.946;6.954;2023-02-28T15:10:39;2.73;;;2.33;;
5129;SDS011;2583;50.946;6.954;2023-02-28T15:13:13;2.60;;;2.40;;
5129;SDS011;2583;50.946;6.954;2023-02-28T15:15:57;4.70;;;2.43;;
5129;SDS011;2583;50.946;6.954;2023-02-28T15:21:15;2.67;;;2.47;;
5129;SDS011;2583;50.946;6.954;2023-02-28T15:23:48;2.50;;;2.30;;
5129;SDS011;2583;50.946;6.954;2023-02-28T15:26:27;2.83;;;2.33;;
5129;SDS011;2583;50.946;6.954;2023-02-28T15:29:07;2.00;;;1.80;;
5129;SDS011;2583;50.946;6.954;2023-02-28T15:31:45;2.60;;;2.40;;
5129;SDS011;2583;50.946;6.954;2023-02-28T15:34:36;2.97;;;2.13;;
5129;SDS011;2583;50.946;6.954;2023-02-28T15:42:41;2.77;;;2.20;;
5129;SDS011;2583;50.946;6.954;2023-02-28T15:45:26;2.30;;;2.10;;
5129;SDS011;2583;50.946;6.954;2023-02-28T15:48:16;3.07;;;2.83;;
5129;SDS011;2583;50.946;6.954;2023-02-28T15:50:54;5.80;;;2.57;;
5129;SDS011;2583;50.946;6.954;2023-02-28T15:53:24;5.60;;;2.97;;
5129;SDS011;2583;50.946;6.954;2023-02-28T15:55:55;3.07;;;2.80;;
5129;SDS011;2583;50.946;6.954;2023-02-28T15:58:27;3.37;;;2.30;;
5129;SDS011;2583;50.946;6.954;2023-02-28T16:01:03;2.80;;;2.00;;
5129;SDS011;2583;50.946;6.954;2023-02-28T16:04:00;3.63;;;1.80;;
5129;SDS011;2583;50.946;6.954;2023-02-28T16:06:53;2.20;;;2.00;;
5129;SDS011;2583;50.946;6.954;2023-02-28T16:09:28;2.60;;;2.40;;
5129;SDS011;2583;50.946;6.954;2023-02-28T16:12:00;2.60;;;2.40;;
5129;SDS011;2583;50.946;6.954;2023-02-28T16:14:29;2.63;;;2.20;;
5129;SDS011;2583;50.946;6.954;2023-02-28T16:17:05;4.47;;;2.20;;
5129;SDS011;2583;50.946;6.954;2023-02-28T16:19:37;2.50;;;2.30;;
5129;SDS011;2583;50.946;6.954;2023-02-28T16:22:04;2.53;;;2.33;;
5129;SDS011;2583;50.946;6.954;2023-02-28T16:24:31;3.20;;;2.17;;
5129;SDS011;2583;50.946;6.954;2023-02-28T16:26:58;3.10;;;2.33;;
5129;SDS011;2583;50.946;6.954;2023-02-28T16:29:27;2.10;;;1.90;;
5129;SDS011;2583;50.946;6.954;2023-02-28T16:31:59;3.30;;;2.03;;
5129;SDS011;2583;50.946;6.954;2023-02-28T16:34:26;2.80;;;2.07;;
5129;SDS011;2583;50.946;6.954;2023-02-28T16:36:53;2.83;;;2.10;;
5129;SDS011;2583;50.946;6.954;2023-02-28T16:39:20;8.43;;;2.50;;
5129;SDS011;2583;50.946;6.954;2023-02-28T16:41:48;3.40;;;2.17;;
5129;SDS011;2583;50.946;6.954;2023-02-28T16:44:29;2.63;;;2.43;;
5129;SDS011;2583;50.946;6.954;2023-02-28T16:47:00;3.50;;;2.50;;
5129;SDS011;2583;50.946;6.954;2023-02-28T16:49:28;3.00;;;2.30;;
5129;SDS011;2583;50.946;6.954;2023-02-28T16:51:56;2.77;;;2.57;;
5129;SDS011;2583;50.946;6.954;2023-02-28T16:54:23;3.17;;;2.40;;
5129;SDS011;2583;50.946;6.954;2023-02-28T16:56:49;2.87;;;2.53;;
5129;SDS011;2583;50.946;6.954;2023-02-28T16:59:18;3.53;;;2.37;;
5129;SDS011;2583;50.946;6.954;2023-02-28T17:01:49;2.80;;;2.60;;
5129;SDS011;2583;50.946;6.954;2023-02-28T17:04:17;3.10;;;2.90;;
5129;SDS011;2583;50.946;6.954;2023-02-28T17:06:44;2.60;;;2.40;;
5129;SDS011;2583;50.946;6.954;2023-02-28T17:09:19;3.20;;;3.00;;
5129;SDS011;2583;50.946;6.954;2023-02-28T17:11:55;3.03;;;2.20;;
5129;SDS011;2583;50.946;6.954;2023-02-28T17:14:22;2.33;;;2.13;;
5129;SDS011;2583;50.946;6.954;2023-02-28T17:16:49;4.73;;;2.73;;
5129;SDS011;2583;50.946;6.954;2023-02-28T17:19:16;3.47;;;2.83;;
5129;SDS011;2583;50.946;6.954;2023-02-28T17:21:44;5.77;;;2.93;;
5129;SDS011;2583;50.946;6.954;2023-02-28T17:24:11;3.70;;;2.67;;
5129;SDS011;2583;50.946;6.954;2023-02-28T17:26:44;2.27;;;2.07;;
5129;SDS011;2583;50.946;6.954;2023-02-28T17:29:13;2.20;;;2.00;;
5129;SDS011;2583;50.946;6.954;2023-02-28T17:31:45;2.17;;;1.80;;
5129;SDS011;2583;50.946;6.954;2023-02-28T17:34:13;2.77;;;2.57;;
5129;SDS011;2583;50.946;6.954;2023-02-28T17:36:44;2.87;;;2.20;;
5129;SDS011;2583;50.946;6.954;2023-02-28T17:39:13;2.67;;;2.30;;
5129;SDS011;2583;50.946;6.954;2023-02-28T17:41:41;2.67;;;2.47;;
5129;SDS011;2583;50.946;6.954;2023-02-28T17:44:08;2.37;;;2.17;;
5129;SDS011;2583;50.946;6.954;2023-02-28T17:46:35;2.80;;;2.50;;
5129;SDS011;2583;50.946;6.954;2023-02-28T17:49:03;2.73;;;2.40;;
5129;SDS011;2583;50.946;6.954;2023-02-28T17:51:30;2.33;;;2.13;;
5129;SDS011;2583;50.946;6.954;2023-02-28T17:53:57;3.73;;;2.50;;
5129;SDS011;2583;50.946;6.954;2023-02-28T17:56:24;3.10;;;2.80;;
5129;SDS011;2583;50.946;6.954;2023-02-28T17:58:52;3.17;;;2.90;;
5129;SDS011;2583;50.946;6.954;2023-02-28T18:01:20;3.60;;;3.30;;
5129;SDS011;2583;50.946;6.954;2023-02-28T18:03:49;3.50;;;2.70;;
5129;SDS011;2583;50.946;6.954;2023-02-28T18:06:16;3.30;;;3.10;;
5129;SDS011;2583;50.946;6.954;2023-02-28T18:08:48;3.97;;;3.57;;
5129;SDS011;2583;50.946;6.954;2023-02-28T18:11:18;3.47;;;2.53;;
5129;SDS011;2583;50.946;6.954;2023-02-28T18:13:46;3.30;;;3.00;;